createdAt,value
2019-04-28T00:02:02.921Z,88.15
2019-04-28T00:04:32.125Z,87.84
2019-04-28T00:07:01.756Z,88.00
2019-04-28T00:09:31.384Z,88.29
2019-04-28T00:12:01.569Z,87.87
2019-04-28T00:14:29.332Z,88.05
2019-04-28T00:16:57.124Z,88.13
2019-04-28T00:19:26.170Z,88.20
2019-04-28T00:22:22.744Z,87.91
2019-04-28T00:24:58.216Z,88.04
2019-04-28T00:27:26.375Z,88.11
2019-04-28T00:29:54.002Z,88.37
2019-04-28T00:32:21.752Z,88.81
2019-04-28T00:34:51.133Z,89.25
2019-04-28T00:37:34.443Z,89.11
2019-04-28T00:40:02.300Z,89.10
2019-04-28T00:42:31.518Z,90.06
2019-04-28T00:45:01.444Z,90.56
2019-04-28T00:47:30.990Z,90.78
2019-04-28T00:49:59.122Z,90.56
2019-04-28T00:52:27.159Z,90.30
2019-04-28T00:54:54.779Z,90.36
2019-04-28T00:57:22.317Z,90.55
2019-04-28T00:59:56.797Z,90.22
2019-04-28T01:02:31.350Z,90.21
2019-04-28T01:05:01.257Z,90.49
2019-04-28T01:07:31.281Z,90.36
2019-04-28T01:09:58.868Z,90.43
2019-04-28T01:12:26.573Z,89.74
2019-04-28T01:14:55.477Z,89.60
2019-04-28T01:17:45.994Z,89.41
2019-04-28T01:20:14.878Z,89.17
2019-04-28T01:22:42.378Z,88.48
2019-04-28T01:25:10.664Z,87.94
2019-04-28T01:27:58.044Z,88.55
2019-04-28T01:30:51.334Z,87.95
2019-04-28T01:33:36.829Z,87.78
2019-04-28T01:36:04.941Z,87.99
2019-04-28T01:38:32.866Z,87.93
2019-04-28T01:41:01.592Z,87.64
2019-04-28T01:43:31.297Z,87.73
2019-04-28T01:46:00.191Z,88.01
2019-04-28T01:48:29.629Z,88.16
2019-04-28T01:50:59.805Z,88.07
2019-04-28T01:53:27.856Z,87.91
2019-04-28T01:55:55.890Z,88.00
2019-04-28T01:58:23.750Z,87.36
2019-04-28T02:00:51.721Z,87.31
2019-04-28T02:03:20.710Z,87.28
2019-04-28T02:05:50.149Z,87.17
2019-04-28T02:08:20.117Z,87.30
2019-04-28T02:10:49.999Z,87.14
2019-04-28T02:13:19.890Z,85.87
2019-04-28T02:15:49.903Z,86.05
2019-04-28T02:18:19.771Z,86.24
2019-04-28T02:20:53.369Z,86.19
2019-04-28T02:23:25.435Z,86.34
2019-04-28T02:25:53.503Z,86.50
2019-04-28T02:28:21.592Z,85.64
2019-04-28T02:30:53.554Z,84.94
2019-04-28T02:33:21.170Z,85.34
2019-04-28T02:35:51.116Z,84.91
2019-04-28T02:38:20.970Z,85.63
2019-04-28T02:40:50.422Z,84.93
2019-04-28T02:43:20.642Z,85.40
2019-04-28T02:45:51.074Z,85.42
2019-04-28T02:48:22.863Z,85.51
2019-04-28T02:51:03.186Z,85.08
2019-04-28T02:53:36.611Z,85.67
2019-04-28T02:56:04.447Z,85.30
2019-04-28T02:58:32.626Z,85.61
2019-04-28T03:01:10.729Z,85.69
2019-04-28T03:03:30.899Z,84.76
2019-04-28T03:06:01.465Z,84.64
2019-04-28T03:08:30.628Z,85.28
2019-04-28T03:11:01.036Z,84.76
2019-04-28T03:13:31.284Z,85.55
2019-04-28T03:16:01.643Z,85.74
2019-04-28T03:18:31.750Z,85.48
2019-04-28T03:21:03.613Z,86.48
2019-04-28T03:23:31.108Z,85.44
2019-04-28T03:26:08.172Z,85.43
2019-04-28T03:28:42.943Z,85.41
2019-04-28T03:32:09.591Z,85.39
2019-04-28T03:34:23.126Z,84.77
2019-04-28T03:36:51.711Z,84.31
2019-04-28T03:39:20.485Z,84.29
2019-04-28T03:41:50.220Z,84.41
2019-04-28T03:44:20.622Z,83.43
2019-04-28T03:46:52.174Z,84.09
2019-04-28T03:49:32.993Z,82.99
2019-04-28T03:52:01.891Z,84.49
2019-04-28T03:54:30.399Z,83.33
2019-04-28T03:57:01.117Z,83.72
2019-04-28T03:59:31.188Z,83.34
2019-04-28T04:02:02.895Z,83.75
2019-04-28T04:04:28.803Z,82.31
2019-04-28T04:06:56.483Z,80.71
2019-04-28T04:09:27.088Z,80.78
2019-04-28T04:12:21.178Z,80.93
2019-04-28T04:14:54.675Z,78.08
2019-04-28T04:17:45.352Z,77.57
2019-04-28T04:20:20.667Z,77.17
2019-04-28T04:22:51.226Z,73.99
2019-04-28T04:25:20.335Z,72.28
2019-04-28T04:27:50.083Z,72.30
2019-04-28T04:30:17.147Z,72.08
2019-04-28T04:32:44.777Z,71.80
2019-04-28T04:35:12.271Z,71.51
2019-04-28T04:37:40.737Z,72.07
2019-04-28T04:40:13.086Z,70.86
2019-04-28T04:42:40.601Z,70.70
2019-04-28T04:45:10.542Z,71.38
2019-04-28T04:47:40.642Z,69.00
2019-04-28T04:50:11.345Z,69.54
2019-04-28T04:52:40.256Z,69.52
2019-04-28T04:55:08.284Z,69.28
2019-04-28T04:57:36.501Z,70.52
2019-04-28T05:00:06.337Z,69.58
2019-04-28T05:02:55.410Z,69.37
2019-04-28T05:05:28.089Z,69.13
2019-04-28T05:07:55.673Z,68.04
2019-04-28T05:10:23.169Z,68.26
2019-04-28T05:12:51.818Z,69.02
2019-04-28T05:15:20.346Z,69.73
2019-04-28T05:17:50.018Z,70.49
2019-04-28T05:20:17.515Z,70.63
2019-04-28T05:22:51.368Z,69.80
2019-04-28T05:25:32.584Z,69.01
2019-04-28T05:28:02.959Z,67.78
2019-04-28T05:30:29.696Z,66.62
2019-04-28T05:32:57.548Z,65.75
2019-04-28T05:35:25.299Z,66.44
2019-04-28T05:37:53.296Z,63.92
2019-04-28T05:40:21.503Z,63.62
2019-04-28T05:43:00.933Z,61.95
2019-04-28T05:45:29.682Z,61.64
2019-04-28T05:47:59.440Z,62.02
2019-04-28T05:50:39.960Z,60.61
2019-04-28T05:53:30.073Z,60.10
2019-04-28T05:56:23.728Z,58.91
2019-04-28T05:58:58.255Z,58.25
2019-04-28T06:01:33.034Z,58.34
2019-04-28T06:04:01.124Z,56.67
2019-04-28T06:06:32.290Z,57.29
2019-04-28T06:09:22.469Z,57.03
2019-04-28T06:11:49.999Z,56.30
2019-04-28T06:14:19.778Z,55.97
2019-04-28T06:16:47.128Z,57.23
2019-04-28T06:19:14.886Z,54.17
2019-04-28T06:21:42.411Z,55.56
2019-04-28T06:24:10.096Z,54.96
2019-04-28T06:26:37.731Z,53.76
2019-04-28T06:29:05.463Z,53.40
2019-04-28T06:31:33.112Z,52.65
2019-04-28T06:34:01.837Z,52.11
2019-04-28T06:36:29.452Z,52.14
2019-04-28T06:38:57.089Z,53.24
2019-04-28T06:41:24.686Z,52.24
2019-04-28T06:43:52.351Z,51.90
2019-04-28T06:46:20.029Z,51.34
2019-04-28T06:48:47.734Z,51.33
2019-04-28T06:51:15.455Z,50.61
2019-04-28T06:53:44.711Z,48.66
2019-04-28T06:56:12.430Z,48.43
2019-04-28T06:58:40.153Z,50.83
2019-04-28T07:01:07.773Z,48.79
2019-04-28T07:03:35.853Z,49.84
2019-04-28T07:06:03.890Z,48.35
2019-04-28T07:08:31.936Z,49.36
2019-04-28T07:10:59.682Z,47.65
2019-04-28T07:13:27.393Z,48.69
2019-04-28T07:15:55.164Z,49.04
2019-04-28T07:18:22.803Z,48.28
2019-04-28T07:20:57.191Z,48.72
2019-04-28T07:23:24.878Z,48.67
2019-04-28T07:25:52.607Z,47.88
2019-04-28T07:28:20.245Z,48.27
2019-04-28T07:30:49.507Z,47.86
2019-04-28T07:33:17.243Z,47.62
2019-04-28T07:35:45.009Z,47.71
2019-04-28T07:38:12.660Z,48.34
2019-04-28T07:40:40.327Z,46.56
2019-04-28T07:43:08.196Z,45.57
2019-04-28T07:45:36.304Z,47.61
2019-04-28T07:48:04.233Z,48.41
2019-04-28T07:50:31.898Z,45.75
2019-04-28T07:53:27.650Z,48.38
2019-04-28T07:55:55.176Z,46.66
2019-04-28T07:58:22.816Z,46.14
2019-04-28T08:00:50.787Z,48.58
2019-04-28T08:03:18.570Z,46.00
2019-04-28T08:05:46.217Z,47.06
2019-04-28T08:08:13.849Z,47.08
2019-04-28T08:10:41.535Z,46.98
2019-04-28T08:13:10.225Z,46.92
2019-04-28T08:15:37.864Z,47.05
2019-04-28T08:18:05.543Z,47.23
2019-04-28T08:20:33.503Z,48.44
2019-04-28T08:23:01.208Z,47.57
2019-04-28T08:25:28.895Z,48.64
2019-04-28T08:27:56.532Z,48.50
2019-04-28T08:30:24.150Z,47.60
2019-04-28T08:33:02.903Z,46.19
2019-04-28T08:35:30.501Z,45.86
2019-04-28T08:37:58.131Z,46.55
2019-04-28T08:40:25.733Z,46.09
2019-04-28T08:42:53.254Z,47.64
2019-04-28T08:45:20.792Z,47.64
2019-04-28T08:47:48.442Z,45.34
2019-04-28T08:50:16.155Z,44.17
2019-04-28T08:52:43.793Z,41.52
2019-04-28T08:55:11.361Z,38.24
2019-04-28T08:57:38.963Z,36.55
2019-04-28T09:00:07.485Z,36.66
2019-04-28T09:02:35.271Z,35.55
2019-04-28T09:05:02.832Z,34.40
2019-04-28T09:07:30.474Z,36.45
2019-04-28T09:09:58.073Z,37.43
2019-04-28T09:12:25.679Z,38.31
2019-04-28T09:14:53.212Z,40.08
2019-04-28T09:17:20.737Z,41.88
2019-04-28T09:19:48.375Z,39.55
2019-04-28T09:22:15.901Z,41.78
2019-04-28T09:24:43.414Z,41.47
2019-04-28T09:27:11.094Z,41.84
2019-04-28T09:29:38.590Z,42.59
2019-04-28T09:32:06.151Z,41.50
2019-04-28T09:34:33.658Z,41.63
2019-04-28T09:37:01.333Z,41.82
2019-04-28T09:39:51.221Z,39.39
2019-04-28T09:42:47.962Z,38.54
2019-04-28T09:45:20.975Z,38.47
2019-04-28T09:47:48.654Z,39.39
2019-04-28T09:50:17.300Z,38.37
2019-04-28T09:52:45.017Z,39.61
2019-04-28T09:55:13.048Z,39.34
2019-04-28T09:57:40.753Z,37.90
2019-04-28T10:00:09.445Z,38.20
2019-04-28T10:02:37.308Z,38.75
2019-04-28T10:05:05.433Z,39.19
2019-04-28T10:07:33.168Z,39.70
2019-04-28T10:10:00.851Z,39.91
2019-04-28T10:12:28.439Z,38.90
2019-04-28T10:14:56.164Z,40.17
2019-04-28T10:17:23.839Z,39.13
2019-04-28T10:19:51.424Z,40.40
2019-04-28T10:22:19.072Z,38.31
2019-04-28T10:24:46.839Z,38.98
2019-04-28T10:27:14.556Z,37.92
2019-04-28T10:29:42.277Z,37.46
2019-04-28T10:32:09.979Z,39.14
2019-04-28T10:34:37.601Z,39.43
2019-04-28T10:37:05.310Z,39.76
2019-04-28T10:39:42.429Z,38.85
2019-04-28T10:42:12.609Z,40.56
2019-04-28T10:44:43.072Z,41.01
2019-04-28T10:47:10.731Z,39.52
2019-04-28T10:49:38.323Z,40.30
2019-04-28T10:52:06.928Z,40.26
2019-04-28T10:54:34.528Z,40.30
2019-04-28T10:57:03.780Z,41.17
2019-04-28T10:59:31.442Z,40.13
2019-04-28T11:01:59.062Z,40.12
2019-04-28T11:04:44.846Z,41.03
2019-04-28T11:07:13.321Z,40.07
2019-04-28T11:09:45.617Z,41.88
2019-04-28T11:12:19.375Z,40.99
2019-04-28T11:14:47.012Z,39.55
2019-04-28T11:17:15.488Z,41.83
2019-04-28T11:19:43.113Z,40.76
2019-04-28T11:22:10.887Z,39.06
2019-04-28T11:24:40.518Z,40.88
2019-04-28T11:27:08.814Z,39.00
2019-04-28T11:29:36.405Z,35.93
2019-04-28T11:32:04.340Z,34.38
2019-04-28T11:34:49.870Z,31.47
2019-04-28T11:37:17.527Z,31.00
2019-04-28T11:39:45.342Z,31.11
2019-04-28T11:42:13.314Z,32.11
2019-04-28T11:44:40.917Z,31.98
2019-04-28T11:47:10.680Z,31.46
2019-04-28T11:49:38.472Z,32.41
2019-04-28T11:52:06.350Z,33.01
2019-04-28T11:54:34.024Z,33.88
2019-04-28T11:57:01.987Z,33.57
2019-04-28T11:59:29.713Z,31.34
2019-04-28T12:01:57.444Z,29.31
2019-04-28T12:04:25.237Z,30.93
2019-04-28T12:06:52.980Z,30.36
2019-04-28T12:09:43.752Z,31.46
2019-04-28T12:12:25.377Z,33.64
2019-04-28T12:15:00.526Z,33.68
2019-04-28T12:17:45.776Z,32.71
2019-04-28T12:20:17.086Z,31.26
2019-04-28T12:22:44.656Z,30.30
2019-04-28T12:25:12.347Z,30.63
2019-04-28T12:27:39.910Z,33.46
2019-04-28T12:30:07.628Z,31.38
2019-04-28T12:32:35.232Z,33.06
2019-04-28T12:35:03.124Z,33.24
2019-04-28T12:37:30.883Z,35.08
2019-04-28T12:39:58.511Z,32.46
2019-04-28T12:42:26.193Z,33.38
2019-04-28T12:44:53.860Z,34.72
2019-04-28T12:47:21.405Z,34.35
2019-04-28T12:50:03.381Z,31.81
2019-04-28T12:52:31.533Z,31.84
2019-04-28T12:55:01.632Z,32.54
2019-04-28T12:57:29.678Z,32.86
2019-04-28T13:00:05.534Z,34.37
2019-04-28T13:02:53.270Z,36.20
2019-04-28T13:05:21.291Z,35.88
2019-04-28T13:07:49.017Z,36.82
2019-04-28T13:10:16.825Z,35.65
2019-04-28T13:12:44.627Z,35.18
2019-04-28T13:15:12.600Z,35.00
2019-04-28T13:17:42.835Z,34.01
2019-04-28T13:20:10.760Z,34.78
2019-04-28T13:22:38.486Z,36.31
2019-04-28T13:25:06.903Z,38.53
2019-04-28T13:27:34.698Z,35.73
2019-04-28T13:30:02.660Z,34.08
2019-04-28T13:32:30.275Z,36.30
2019-04-28T13:34:57.983Z,36.30
2019-04-28T13:37:25.673Z,35.96
2019-04-28T13:40:03.304Z,35.15
2019-04-28T13:42:30.954Z,35.15
2019-04-28T13:45:02.402Z,36.35
2019-04-28T13:47:30.008Z,35.60
2019-04-28T13:50:03.189Z,36.32
2019-04-28T13:52:30.954Z,36.32
2019-04-28T13:55:36.618Z,36.71
2019-04-28T13:58:04.549Z,36.92
2019-04-28T14:00:53.248Z,36.32
2019-04-28T14:03:43.283Z,38.21
2019-04-28T14:06:13.295Z,38.23
2019-04-28T14:08:41.103Z,36.65
2019-04-28T14:11:08.970Z,36.79
2019-04-28T14:13:36.590Z,38.06
2019-04-28T14:16:05.675Z,37.62
2019-04-28T14:18:33.335Z,36.35
2019-04-28T14:21:00.912Z,37.62
2019-04-28T14:23:28.484Z,38.82
2019-04-28T14:25:56.042Z,38.24
2019-04-28T14:28:23.751Z,38.67
2019-04-28T14:30:51.428Z,36.22
2019-04-28T14:33:19.023Z,36.62
2019-04-28T14:35:46.863Z,38.01
2019-04-28T14:38:15.675Z,38.49
2019-04-28T14:40:43.443Z,37.95
2019-04-28T14:43:11.112Z,37.89
2019-04-28T14:45:38.949Z,37.74
2019-04-28T14:48:08.280Z,37.71
2019-04-28T14:50:35.936Z,38.19
2019-04-28T14:53:03.718Z,37.65
2019-04-28T14:55:31.514Z,38.17
2019-04-28T14:57:59.176Z,38.13
2019-04-28T15:00:35.424Z,39.49
2019-04-28T15:03:06.504Z,40.17
2019-04-28T15:06:02.616Z,40.33
2019-04-28T15:08:49.798Z,39.34
2019-04-28T15:11:27.918Z,39.79
2019-04-28T15:13:55.680Z,40.19
2019-04-28T15:16:23.399Z,40.37
2019-04-28T15:18:50.966Z,41.03
2019-04-28T15:21:18.634Z,41.17
2019-04-28T15:23:46.224Z,40.84
2019-04-28T15:26:13.915Z,41.32
2019-04-28T15:28:41.484Z,41.76
2019-04-28T15:31:09.095Z,42.22
2019-04-28T15:33:36.713Z,41.18
2019-04-28T15:36:04.454Z,42.46
2019-04-28T15:38:32.062Z,42.70
2019-04-28T15:40:59.749Z,41.14
2019-04-28T15:43:27.392Z,42.31
2019-04-28T15:45:55.101Z,42.44
2019-04-28T15:48:22.852Z,40.46
2019-04-28T15:50:50.643Z,41.79
2019-04-28T15:53:18.362Z,40.75
2019-04-28T15:55:59.667Z,42.09
2019-04-28T15:58:37.716Z,41.91
2019-04-28T16:01:05.631Z,41.33
2019-04-28T16:03:33.395Z,41.87
2019-04-28T16:06:01.048Z,41.33
2019-04-28T16:08:28.877Z,41.08
2019-04-28T16:10:56.646Z,41.15
2019-04-28T16:13:24.502Z,41.52
2019-04-28T16:15:52.228Z,42.95
2019-04-28T16:18:19.862Z,42.97
2019-04-28T16:20:47.402Z,42.48
2019-04-28T16:23:15.122Z,42.49
2019-04-28T16:25:42.667Z,43.16
2019-04-28T16:28:10.386Z,41.85
2019-04-28T16:30:37.937Z,42.37
2019-04-28T16:33:05.570Z,42.86
2019-04-28T16:35:33.145Z,42.99
2019-04-28T16:38:00.810Z,43.06
2019-04-28T16:40:33.431Z,43.89
2019-04-28T16:43:05.019Z,45.39
2019-04-28T16:45:32.622Z,46.02
2019-04-28T16:48:00.265Z,46.65
2019-04-28T16:50:27.901Z,45.59
2019-04-28T16:52:57.141Z,45.42
2019-04-28T16:55:31.670Z,44.11
2019-04-28T16:58:21.759Z,44.32
2019-04-28T17:01:18.242Z,43.95
2019-04-28T17:03:46.001Z,48.69
2019-04-28T17:06:13.589Z,44.18
2019-04-28T17:08:41.124Z,47.04
2019-04-28T17:11:08.810Z,47.28
2019-04-28T17:13:36.334Z,46.31
2019-04-28T17:16:04.031Z,47.67
2019-04-28T17:18:31.669Z,46.04
2019-04-28T17:20:59.204Z,46.62
2019-04-28T17:23:27.213Z,45.58
2019-04-28T17:25:54.793Z,45.30
2019-04-28T17:28:22.309Z,46.76
2019-04-28T17:30:50.055Z,44.60
2019-04-28T17:33:17.636Z,45.95
2019-04-28T17:35:45.256Z,45.18
2019-04-28T17:38:12.748Z,45.19
2019-04-28T17:40:40.780Z,46.05
2019-04-28T17:43:08.616Z,46.36
2019-04-28T17:45:36.240Z,46.36
2019-04-28T17:48:13.219Z,46.04
2019-04-28T17:50:40.862Z,46.72
2019-04-28T17:53:08.614Z,46.33
2019-04-28T17:55:36.741Z,47.46
2019-04-28T17:58:04.322Z,46.39
2019-04-28T18:00:50.163Z,46.27
2019-04-28T18:03:31.551Z,46.12
2019-04-28T18:06:17.517Z,46.09
2019-04-28T18:08:37.957Z,45.90
2019-04-28T18:11:05.636Z,46.57
2019-04-28T18:13:33.244Z,46.81
2019-04-28T18:16:26.797Z,46.95
2019-04-28T18:19:03.918Z,46.80
2019-04-28T18:21:31.700Z,47.60
2019-04-28T18:23:59.249Z,48.29
2019-04-28T18:26:26.945Z,47.68
2019-04-28T18:28:54.642Z,46.88
2019-04-28T18:31:36.479Z,46.36
2019-04-28T18:34:22.443Z,47.28
2019-04-28T18:37:03.343Z,49.07
2019-04-28T18:39:56.670Z,48.00
2019-04-28T18:42:50.919Z,49.91
2019-04-28T18:45:18.679Z,48.05
2019-04-28T18:47:46.281Z,52.10
2019-04-28T18:50:14.235Z,50.15
2019-04-28T18:52:41.796Z,51.83
2019-04-28T18:55:09.567Z,49.01
2019-04-28T18:57:37.248Z,47.88
2019-04-28T19:00:05.704Z,48.68
2019-04-28T19:02:45.602Z,51.46
2019-04-28T19:05:13.458Z,48.06
2019-04-28T19:08:15.379Z,49.11
2019-04-28T19:11:06.579Z,48.52
2019-04-28T19:13:37.989Z,49.39
2019-04-28T19:16:43.075Z,51.03
2019-04-28T19:19:11.605Z,47.38
2019-04-28T19:21:41.581Z,48.96
2019-04-28T19:24:09.188Z,49.53
2019-04-28T19:26:36.845Z,51.45
2019-04-28T19:29:04.447Z,49.68
2019-04-28T19:31:32.117Z,48.29
2019-04-28T19:33:59.733Z,52.29
2019-04-28T19:36:27.853Z,53.00
2019-04-28T19:39:02.900Z,51.06
2019-04-28T19:41:25.159Z,53.41
2019-04-28T19:43:52.813Z,50.09
2019-04-28T19:46:20.599Z,49.83
2019-04-28T19:48:48.260Z,50.28
2019-04-28T19:51:30.833Z,50.95
2019-04-28T19:53:47.516Z,50.29
2019-04-28T19:56:29.162Z,52.88
2019-04-28T19:59:03.074Z,50.42
2019-04-28T20:01:30.958Z,50.95
2019-04-28T20:03:58.634Z,49.46
2019-04-28T20:06:26.463Z,50.54
2019-04-28T20:08:54.261Z,50.88
2019-04-28T20:11:22.121Z,50.36
2019-04-28T20:13:49.864Z,49.04
2019-04-28T20:16:17.618Z,47.58
2019-04-28T20:18:45.298Z,47.71
2019-04-28T20:21:13.097Z,48.37
2019-04-28T20:23:40.964Z,48.48
2019-04-28T20:26:08.670Z,49.23
2019-04-28T20:28:36.673Z,48.51
2019-04-28T20:31:04.548Z,48.54
2019-04-28T20:33:32.418Z,47.81
2019-04-28T20:36:07.562Z,47.99
2019-04-28T20:38:35.239Z,48.04
2019-04-28T20:41:11.817Z,48.80
2019-04-28T20:43:39.667Z,48.15
2019-04-28T20:46:07.494Z,48.00
2019-04-28T20:48:35.181Z,49.14
2019-04-28T20:51:03.126Z,48.95
2019-04-28T20:53:30.905Z,48.96
2019-04-28T20:55:58.778Z,49.19
2019-04-28T20:58:26.517Z,48.83
2019-04-28T21:00:54.525Z,49.32
2019-04-28T21:03:22.291Z,49.55
2019-04-28T21:05:50.053Z,50.32
2019-04-28T21:08:17.779Z,50.82
2019-04-28T21:10:45.650Z,49.60
2019-04-28T21:13:14.499Z,49.31
2019-04-28T21:15:42.238Z,48.98
2019-04-28T21:18:11.073Z,49.49
2019-04-28T21:20:40.150Z,49.33
2019-04-28T21:23:08.188Z,49.13
2019-04-28T21:25:36.927Z,49.29
2019-04-28T21:28:05.236Z,49.21
2019-04-28T21:30:33.241Z,50.23
2019-04-28T21:33:00.982Z,49.90
2019-04-28T21:35:28.734Z,49.89
2019-04-28T21:37:56.551Z,50.00
2019-04-28T21:40:24.885Z,50.16
2019-04-28T21:43:10.718Z,49.83
2019-04-28T21:46:00.693Z,49.90
2019-04-28T21:48:49.802Z,50.73
2019-04-28T21:51:17.479Z,50.92
2019-04-28T21:53:45.183Z,50.45
2019-04-28T21:56:12.861Z,49.98
2019-04-28T21:58:41.103Z,50.59
2019-04-28T22:01:12.325Z,50.86
2019-04-28T22:03:40.385Z,51.04
2019-04-28T22:06:08.390Z,50.84
2019-04-28T22:08:36.404Z,51.17
2019-04-28T22:11:04.410Z,50.80
2019-04-28T22:13:32.472Z,51.45
2019-04-28T22:16:00.226Z,51.85
2019-04-28T22:18:27.999Z,51.13
2019-04-28T22:20:56.963Z,51.17
2019-04-28T22:23:31.430Z,51.23
2019-04-28T22:25:59.313Z,52.10
2019-04-28T22:28:27.019Z,52.13
2019-04-28T22:30:54.795Z,52.90
2019-04-28T22:33:22.568Z,52.58
2019-04-28T22:35:50.495Z,52.62
2019-04-28T22:38:18.186Z,52.93
2019-04-28T22:40:46.034Z,52.51
2019-04-28T22:43:13.745Z,53.08
2019-04-28T22:45:42.479Z,52.90
2019-04-28T22:48:12.887Z,52.68
2019-04-28T22:50:44.090Z,52.24
2019-04-28T22:53:13.213Z,52.18
2019-04-28T22:55:50.441Z,52.53
2019-04-28T22:58:44.008Z,52.99
2019-04-28T23:01:40.527Z,53.02
2019-04-28T23:04:30.911Z,53.18
2019-04-28T23:06:58.634Z,53.04
2019-04-28T23:09:26.574Z,53.91
2019-04-28T23:11:54.306Z,54.37
2019-04-28T23:14:21.891Z,53.06
2019-04-28T23:16:49.507Z,53.51
2019-04-28T23:19:19.303Z,53.67
2019-04-28T23:22:09.659Z,54.45
2019-04-28T23:24:37.255Z,53.88
2019-04-28T23:27:07.084Z,54.92
2019-04-28T23:29:34.741Z,54.06
2019-04-28T23:32:02.735Z,54.52
2019-04-28T23:34:30.329Z,54.35
2019-04-28T23:36:58.087Z,54.51
2019-04-28T23:39:25.875Z,55.15
2019-04-28T23:42:01.724Z,55.20
2019-04-28T23:44:29.421Z,55.27
2019-04-28T23:46:58.289Z,55.35
2019-04-28T23:49:26.909Z,55.49
2019-04-28T23:52:04.325Z,55.76
2019-04-28T23:54:32.431Z,55.07
2019-04-28T23:57:00.172Z,55.49
2019-04-28T23:59:28.044Z,54.84
